sensor_id;sensor_type;location;lat;lon;timestamp;pressure;altitude;pressure_sealevel;temperature;humidity
61939;BME280;47897;50.322;18.892;2022-09-24T00:00:37;57739.27;;;-145.38;73.55
61939;BME280;47897;50.322;18.892;2022-09-24T00:03:23;57755.42;;;-145.38;73.81
61939;BME280;47897;50.322;18.892;2022-09-24T00:06:08;57746.49;;;-145.38;73.93
61939;BME280;47897;50.322;18.892;2022-09-24T00:08:54;57750.74;;;-145.38;74.11
61939;BME280;47897;50.322;18.892;2022-09-24T00:11:39;57757.96;;;-145.38;74.29
61939;BME280;47897;50.322;18.892;2022-09-24T00:14:23;57756.27;;;-145.38;74.11
61939;BME280;47897;50.322;18.892;2022-09-24T00:17:08;57763.49;;;-145.38;74.25
61939;BME280;47897;50.322;18.892;2022-09-24T00:19:52;57745.22;;;-145.38;74.26
61939;BME280;47897;50.322;18.892;2022-09-24T00:22:36;57760.94;;;-145.38;74.35
61939;BME280;47897;50.322;18.892;2022-09-24T00:25:19;57746.49;;;-145.38;74.26
61939;BME280;47897;50.322;18.892;2022-09-24T00:28:23;57757.11;;;-145.38;74.48
61939;BME280;47897;50.322;18.892;2022-09-24T00:31:07;57744.37;;;-145.38;74.90
61939;BME280;47897;50.322;18.892;2022-09-24T00:33:51;57771.14;;;-145.38;75.34
61939;BME280;47897;50.322;18.892;2022-09-24T00:36:36;57739.70;;;-145.38;75.68
61939;BME280;47897;50.322;18.892;2022-09-24T00:39:21;57768.16;;;-145.38;75.78
61939;BME280;47897;50.322;18.892;2022-09-24T00:42:05;57747.77;;;-145.38;75.58
61939;BME280;47897;50.322;18.892;2022-09-24T00:44:54;57759.24;;;-145.38;75.60
61939;BME280;47897;50.322;18.892;2022-09-24T00:47:39;57758.82;;;-145.38;75.63
61939;BME280;47897;50.322;18.892;2022-09-24T00:50:28;57752.45;;;-145.38;75.94
61939;BME280;47897;50.322;18.892;2022-09-24T00:53:17;57755.42;;;-145.38;76.64
61939;BME280;47897;50.322;18.892;2022-09-24T00:56:04;57755.84;;;-145.38;76.63
61939;BME280;47897;50.322;18.892;2022-09-24T00:58:53;57751.59;;;-145.38;77.01
61939;BME280;47897;50.322;18.892;2022-09-24T01:01:39;57757.12;;;-145.38;76.67
61939;BME280;47897;50.322;18.892;2022-09-24T01:04:26;57764.34;;;-145.38;76.61
61939;BME280;47897;50.322;18.892;2022-09-24T01:07:11;57763.91;;;-145.38;76.57
61939;BME280;47897;50.322;18.892;2022-09-24T01:09:56;57759.66;;;-145.38;76.75
61939;BME280;47897;50.322;18.892;2022-09-24T01:12:52;57770.29;;;-145.38;76.51
61939;BME280;47897;50.322;18.892;2022-09-24T01:15:49;57775.81;;;-145.38;76.43
61939;BME280;47897;50.322;18.892;2022-09-24T01:18:45;57768.59;;;-145.38;76.46
61939;BME280;47897;50.322;18.892;2022-09-24T01:21:38;57759.24;;;-145.38;76.48
61939;BME280;47897;50.322;18.892;2022-09-24T01:27:47;57762.21;;;-145.38;76.30
61939;BME280;47897;50.322;18.892;2022-09-24T01:30:40;57755.84;;;-145.38;76.09
61939;BME280;47897;50.322;18.892;2022-09-24T01:33:26;57749.47;;;-145.38;76.14
61939;BME280;47897;50.322;18.892;2022-09-24T01:36:13;57752.45;;;-145.38;75.70
61939;BME280;47897;50.322;18.892;2022-09-24T01:39:00;57764.34;;;-145.38;75.40
61939;BME280;47897;50.322;18.892;2022-09-24T01:41:46;57761.79;;;-145.38;75.41
61939;BME280;47897;50.322;18.892;2022-09-24T01:44:33;57774.11;;;-145.38;74.94
61939;BME280;47897;50.322;18.892;2022-09-24T01:47:44;57746.49;;;-145.38;74.81
61939;BME280;47897;50.322;18.892;2022-09-24T01:50:33;57746.06;;;-145.38;75.20
61939;BME280;47897;50.322;18.892;2022-09-24T01:53:23;57768.59;;;-145.38;75.23
61939;BME280;47897;50.322;18.892;2022-09-24T01:56:17;57757.54;;;-145.38;75.27
61939;BME280;47897;50.322;18.892;2022-09-24T01:59:15;57752.01;;;-145.38;74.95
61939;BME280;47897;50.322;18.892;2022-09-24T02:04:57;57755.42;;;-145.38;74.51
61939;BME280;47897;50.322;18.892;2022-09-24T02:08:03;57754.14;;;-145.38;74.65
61939;BME280;47897;50.322;18.892;2022-09-24T02:11:09;57747.34;;;-145.38;74.10
61939;BME280;47897;50.322;18.892;2022-09-24T02:14:27;57755.42;;;-145.38;74.12
61939;BME280;47897;50.322;18.892;2022-09-24T02:17:13;57749.47;;;-145.38;74.18
61939;BME280;47897;50.322;18.892;2022-09-24T02:20:00;57768.59;;;-145.38;73.91
61939;BME280;47897;50.322;18.892;2022-09-24T02:22:48;57746.49;;;-145.38;73.96
61939;BME280;47897;50.322;18.892;2022-09-24T02:28:33;57753.29;;;-145.38;73.74
61939;BME280;47897;50.322;18.892;2022-09-24T02:31:23;57762.64;;;-145.38;73.83
61939;BME280;47897;50.322;18.892;2022-09-24T02:34:13;57751.59;;;-145.38;73.55
61939;BME280;47897;50.322;18.892;2022-09-24T02:37:10;57747.34;;;-145.38;73.39
61939;BME280;47897;50.322;18.892;2022-09-24T02:39:55;57737.15;;;-145.38;73.29
61939;BME280;47897;50.322;18.892;2022-09-24T02:42:41;57758.81;;;-145.38;73.35
61939;BME280;47897;50.322;18.892;2022-09-24T02:45:26;57739.70;;;-145.38;73.44
61939;BME280;47897;50.322;18.892;2022-09-24T02:48:10;57746.49;;;-145.38;73.44
61939;BME280;47897;50.322;18.892;2022-09-24T02:50:54;57736.29;;;-145.38;73.38
61939;BME280;47897;50.322;18.892;2022-09-24T02:53:38;57744.79;;;-145.38;73.20
61939;BME280;47897;50.322;18.892;2022-09-24T02:56:23;57747.34;;;-145.38;73.27
61939;BME280;47897;50.322;18.892;2022-09-24T02:59:08;57750.32;;;-145.38;73.12
61939;BME280;47897;50.322;18.892;2022-09-24T03:01:52;57747.77;;;-145.38;73.27
61939;BME280;47897;50.322;18.892;2022-09-24T03:04:37;57742.67;;;-145.38;73.40
61939;BME280;47897;50.322;18.892;2022-09-24T03:07:22;57754.57;;;-145.38;73.05
61939;BME280;47897;50.322;18.892;2022-09-24T03:10:07;57740.97;;;-145.38;73.46
61939;BME280;47897;50.322;18.892;2022-09-24T03:12:51;57754.57;;;-145.38;73.16
61939;BME280;47897;50.322;18.892;2022-09-24T03:15:36;57744.79;;;-145.38;73.43
61939;BME280;47897;50.322;18.892;2022-09-24T03:18:20;57739.70;;;-145.38;73.28
61939;BME280;47897;50.322;18.892;2022-09-24T03:21:07;57735.87;;;-145.38;73.51
61939;BME280;47897;50.322;18.892;2022-09-24T03:23:52;57745.64;;;-145.38;73.72
61939;BME280;47897;50.322;18.892;2022-09-24T03:26:37;57744.37;;;-145.38;73.59
61939;BME280;47897;50.322;18.892;2022-09-24T03:29:21;57732.89;;;-145.38;73.33
61939;BME280;47897;50.322;18.892;2022-09-24T03:32:25;57735.87;;;-145.38;73.55
61939;BME280;47897;50.322;18.892;2022-09-24T03:35:09;57736.72;;;-145.38;73.82
61939;BME280;47897;50.322;18.892;2022-09-24T03:37:54;57756.70;;;-145.38;74.15
61939;BME280;47897;50.322;18.892;2022-09-24T03:40:39;57735.45;;;-145.38;74.26
61939;BME280;47897;50.322;18.892;2022-09-24T03:43:24;57747.77;;;-145.38;74.26
61939;BME280;47897;50.322;18.892;2022-09-24T03:46:10;57741.39;;;-145.38;74.15
61939;BME280;47897;50.322;18.892;2022-09-24T03:48:56;57735.45;;;-145.38;74.24
61939;BME280;47897;50.322;18.892;2022-09-24T03:51:40;57744.79;;;-145.38;74.08
61939;BME280;47897;50.322;18.892;2022-09-24T03:54:24;57748.62;;;-145.38;74.02
61939;BME280;47897;50.322;18.892;2022-09-24T03:57:08;57737.99;;;-145.38;74.10
61939;BME280;47897;50.322;18.892;2022-09-24T03:59:52;57763.06;;;-145.38;74.02
61939;BME280;47897;50.322;18.892;2022-09-24T04:02:36;57754.14;;;-145.38;73.96
61939;BME280;47897;50.322;18.892;2022-09-24T04:05:07;57746.49;;;-145.38;74.17
61939;BME280;47897;50.322;18.892;2022-09-24T04:07:37;57738.42;;;-145.38;74.48
61939;BME280;47897;50.322;18.892;2022-09-24T04:10:07;57749.04;;;-145.38;74.62
61939;BME280;47897;50.322;18.892;2022-09-24T04:12:38;57761.36;;;-145.38;74.65
61939;BME280;47897;50.322;18.892;2022-09-24T04:15:08;57756.27;;;-145.38;74.63
61939;BME280;47897;50.322;18.892;2022-09-24T04:17:38;57735.02;;;-145.38;74.56
61939;BME280;47897;50.322;18.892;2022-09-24T04:20:08;57740.54;;;-145.38;74.43
61939;BME280;47897;50.322;18.892;2022-09-24T04:22:39;57744.79;;;-145.38;74.53
61939;BME280;47897;50.322;18.892;2022-09-24T04:25:09;57752.02;;;-145.38;74.47
61939;BME280;47897;50.322;18.892;2022-09-24T04:27:39;57765.61;;;-145.38;74.40
61939;BME280;47897;50.322;18.892;2022-09-24T04:30:12;57750.74;;;-145.38;74.47
61939;BME280;47897;50.322;18.892;2022-09-24T04:32:42;57760.09;;;-145.38;74.55
61939;BME280;47897;50.322;18.892;2022-09-24T04:35:12;57755.42;;;-145.38;74.24
61939;BME280;47897;50.322;18.892;2022-09-24T04:37:42;57755.42;;;-145.38;74.29
61939;BME280;47897;50.322;18.892;2022-09-24T04:40:13;57754.56;;;-145.38;74.05
61939;BME280;47897;50.322;18.892;2022-09-24T04:42:44;57739.70;;;-145.38;74.44
61939;BME280;47897;50.322;18.892;2022-09-24T04:45:18;57740.97;;;-145.38;74.63
61939;BME280;47897;50.322;18.892;2022-09-24T04:47:49;57747.77;;;-145.38;74.60
61939;BME280;47897;50.322;18.892;2022-09-24T04:50:27;57745.64;;;-145.38;74.62
61939;BME280;47897;50.322;18.892;2022-09-24T04:52:58;57750.32;;;-145.38;74.42
61939;BME280;47897;50.322;18.892;2022-09-24T04:55:28;57745.22;;;-145.38;74.61
61939;BME280;47897;50.322;18.892;2022-09-24T04:58:00;57740.97;;;-145.38;74.40
61939;BME280;47897;50.322;18.892;2022-09-24T05:00:31;57744.37;;;-145.38;74.79
61939;BME280;47897;50.322;18.892;2022-09-24T05:03:02;57747.34;;;-145.38;75.03
61939;BME280;47897;50.322;18.892;2022-09-24T05:05:32;57735.87;;;-145.38;75.03
61939;BME280;47897;50.322;18.892;2022-09-24T05:08:03;57752.45;;;-145.38;75.13
61939;BME280;47897;50.322;18.892;2022-09-24T05:10:33;57754.99;;;-145.38;75.11
61939;BME280;47897;50.322;18.892;2022-09-24T05:13:03;57733.74;;;-145.38;75.23
61939;BME280;47897;50.322;18.892;2022-09-24T05:15:33;57751.59;;;-145.38;75.35
61939;BME280;47897;50.322;18.892;2022-09-24T05:18:03;57757.11;;;-145.38;75.36
61939;BME280;47897;50.322;18.892;2022-09-24T05:20:34;57738.84;;;-145.38;75.38
61939;BME280;47897;50.322;18.892;2022-09-24T05:23:04;57737.99;;;-145.38;75.39
61939;BME280;47897;50.322;18.892;2022-09-24T05:25:34;57747.77;;;-145.38;75.54
61939;BME280;47897;50.322;18.892;2022-09-24T05:28:25;57744.37;;;-145.38;75.88
61939;BME280;47897;50.322;18.892;2022-09-24T05:30:58;57766.46;;;-145.38;75.91
61939;BME280;47897;50.322;18.892;2022-09-24T05:33:28;57737.14;;;-145.38;76.21
61939;BME280;47897;50.322;18.892;2022-09-24T05:35:58;57743.52;;;-145.38;76.43
61939;BME280;47897;50.322;18.892;2022-09-24T05:38:28;57765.19;;;-145.38;76.84
61939;BME280;47897;50.322;18.892;2022-09-24T05:40:59;57757.54;;;-145.38;76.92
61939;BME280;47897;50.322;18.892;2022-09-24T05:43:29;57748.20;;;-145.38;76.97
61939;BME280;47897;50.322;18.892;2022-09-24T05:46:00;57739.27;;;-145.38;77.08
61939;BME280;47897;50.322;18.892;2022-09-24T05:48:31;57762.22;;;-145.38;77.15
61939;BME280;47897;50.322;18.892;2022-09-24T05:51:01;57759.66;;;-145.38;76.89
61939;BME280;47897;50.322;18.892;2022-09-24T05:53:31;57736.72;;;-145.38;77.20
61939;BME280;47897;50.322;18.892;2022-09-24T05:56:02;57757.96;;;-145.38;77.01
61939;BME280;47897;50.322;18.892;2022-09-24T05:58:35;57751.59;;;-145.38;77.13
61939;BME280;47897;50.322;18.892;2022-09-24T06:01:05;57743.52;;;-145.38;77.06
61939;BME280;47897;50.322;18.892;2022-09-24T06:03:36;57756.69;;;-145.38;77.09
61939;BME280;47897;50.322;18.892;2022-09-24T06:06:08;57750.32;;;-145.38;77.22
61939;BME280;47897;50.322;18.892;2022-09-24T06:08:38;57766.89;;;-145.38;77.33
61939;BME280;47897;50.322;18.892;2022-09-24T06:11:08;57764.34;;;-145.38;77.58
61939;BME280;47897;50.322;18.892;2022-09-24T06:13:39;57760.52;;;-145.38;77.54
61939;BME280;47897;50.322;18.892;2022-09-24T06:16:10;57757.54;;;-145.38;77.52
61939;BME280;47897;50.322;18.892;2022-09-24T06:18:42;57758.82;;;-145.38;77.12
61939;BME280;47897;50.322;18.892;2022-09-24T06:21:14;57759.24;;;-145.38;77.19
61939;BME280;47897;50.322;18.892;2022-09-24T06:23:47;57762.21;;;-145.38;77.35
61939;BME280;47897;50.322;18.892;2022-09-24T06:26:17;57761.37;;;-145.38;77.27
61939;BME280;47897;50.322;18.892;2022-09-24T06:28:47;57761.36;;;-145.38;77.31
61939;BME280;47897;50.322;18.892;2022-09-24T06:31:17;57762.22;;;-145.38;76.99
61939;BME280;47897;50.322;18.892;2022-09-24T06:33:47;57768.16;;;-145.38;76.92
61939;BME280;47897;50.322;18.892;2022-09-24T06:36:17;57755.84;;;-145.38;76.78
61939;BME280;47897;50.322;18.892;2022-09-24T06:38:51;57760.52;;;-145.38;76.64
61939;BME280;47897;50.322;18.892;2022-09-24T06:41:21;57746.92;;;-145.38;76.81
61939;BME280;47897;50.322;18.892;2022-09-24T06:43:53;57751.59;;;-145.38;76.72
61939;BME280;47897;50.322;18.892;2022-09-24T06:46:23;57754.57;;;-145.38;76.49
61939;BME280;47897;50.322;18.892;2022-09-24T06:48:54;57746.07;;;-145.38;76.22
61939;BME280;47897;50.322;18.892;2022-09-24T06:51:24;57769.86;;;-145.38;76.20
61939;BME280;47897;50.322;18.892;2022-09-24T06:53:54;57749.47;;;-145.38;76.48
61939;BME280;47897;50.322;18.892;2022-09-24T06:56:24;57753.29;;;-145.38;76.46
61939;BME280;47897;50.322;18.892;2022-09-24T06:58:54;57766.04;;;-145.38;76.56
61939;BME280;47897;50.322;18.892;2022-09-24T07:01:24;57754.99;;;-145.38;76.59
61939;BME280;47897;50.322;18.892;2022-09-24T07:03:54;57771.56;;;-145.38;76.32
61939;BME280;47897;50.322;18.892;2022-09-24T07:06:24;57747.34;;;-145.38;76.12
61939;BME280;47897;50.322;18.892;2022-09-24T07:08:54;57772.84;;;-145.38;75.96
61939;BME280;47897;50.322;18.892;2022-09-24T07:11:25;57753.72;;;-145.38;75.62
61939;BME280;47897;50.322;18.892;2022-09-24T07:13:55;57773.70;;;-145.38;75.46
61939;BME280;47897;50.322;18.892;2022-09-24T07:16:25;57777.94;;;-145.38;75.33
61939;BME280;47897;50.322;18.892;2022-09-24T07:18:55;57776.24;;;-145.38;75.15
61939;BME280;47897;50.322;18.892;2022-09-24T07:21:25;57788.14;;;-145.38;74.94
61939;BME280;47897;50.322;18.892;2022-09-24T07:23:55;57761.79;;;-145.38;75.03
61939;BME280;47897;50.322;18.892;2022-09-24T07:26:27;57762.21;;;-145.38;74.93
61939;BME280;47897;50.322;18.892;2022-09-24T07:28:57;57771.56;;;-145.38;74.85
61939;BME280;47897;50.322;18.892;2022-09-24T07:31:28;57765.61;;;-145.38;74.59
61939;BME280;47897;50.322;18.892;2022-09-24T07:33:58;57783.46;;;-145.38;74.67
61939;BME280;47897;50.322;18.892;2022-09-24T07:36:29;57760.52;;;-145.38;74.54
61939;BME280;47897;50.322;18.892;2022-09-24T07:39:00;57763.91;;;-145.38;74.52
61939;BME280;47897;50.322;18.892;2022-09-24T07:41:30;57783.46;;;-145.38;74.27
61939;BME280;47897;50.322;18.892;2022-09-24T07:44:00;57769.45;;;-145.38;73.65
61939;BME280;47897;50.322;18.892;2022-09-24T07:46:31;57774.11;;;-145.38;73.33
61939;BME280;47897;50.322;18.892;2022-09-24T07:49:01;57766.89;;;-145.38;73.15
61939;BME280;47897;50.322;18.892;2022-09-24T07:51:31;57770.29;;;-145.38;73.00
61939;BME280;47897;50.322;18.892;2022-09-24T07:54:01;57753.29;;;-145.38;72.86
61939;BME280;47897;50.322;18.892;2022-09-24T07:56:31;57756.26;;;-145.38;72.43
61939;BME280;47897;50.322;18.892;2022-09-24T07:59:01;57782.19;;;-145.38;72.26
61939;BME280;47897;50.322;18.892;2022-09-24T08:01:32;57778.37;;;-145.38;71.81
61939;BME280;47897;50.322;18.892;2022-09-24T08:04:03;57779.64;;;-145.38;71.74
61939;BME280;47897;50.322;18.892;2022-09-24T08:06:34;57755.84;;;-145.38;71.62
61939;BME280;47897;50.322;18.892;2022-09-24T08:09:04;57771.56;;;-145.38;71.54
61939;BME280;47897;50.322;18.892;2022-09-24T08:11:34;57777.51;;;-145.38;71.13
61939;BME280;47897;50.322;18.892;2022-09-24T08:14:04;57774.11;;;-145.38;70.72
61939;BME280;47897;50.322;18.892;2022-09-24T08:16:34;57770.29;;;-145.38;70.29
61939;BME280;47897;50.322;18.892;2022-09-24T08:19:05;57763.91;;;-145.38;70.00
61939;BME280;47897;50.322;18.892;2022-09-24T08:21:37;57758.39;;;-145.38;69.85
61939;BME280;47897;50.322;18.892;2022-09-24T08:24:07;57770.71;;;-145.38;69.75
61939;BME280;47897;50.322;18.892;2022-09-24T08:26:37;57759.24;;;-145.38;69.39
61939;BME280;47897;50.322;18.892;2022-09-24T08:29:08;57781.77;;;-145.38;69.45
61939;BME280;47897;50.322;18.892;2022-09-24T08:31:37;57776.67;;;-145.38;69.14
61939;BME280;47897;50.322;18.892;2022-09-24T08:34:08;57761.79;;;-145.38;69.03
61939;BME280;47897;50.322;18.892;2022-09-24T08:36:38;57753.29;;;-145.38;69.13
61939;BME280;47897;50.322;18.892;2022-09-24T08:39:08;57762.64;;;-145.38;69.01
61939;BME280;47897;50.322;18.892;2022-09-24T08:41:54;57780.91;;;-145.38;68.89
61939;BME280;47897;50.322;18.892;2022-09-24T08:44:42;57766.04;;;-145.38;68.49
61939;BME280;47897;50.322;18.892;2022-09-24T08:47:36;57766.47;;;-145.38;67.91
61939;BME280;47897;50.322;18.892;2022-09-24T08:50:24;57766.04;;;-145.38;67.91
61939;BME280;47897;50.322;18.892;2022-09-24T08:55:55;57754.99;;;-145.38;67.01
61939;BME280;47897;50.322;18.892;2022-09-24T09:01:37;57770.29;;;-145.38;66.29
61939;BME280;47897;50.322;18.892;2022-09-24T09:09:58;57772.42;;;-145.38;64.57
61939;BME280;47897;50.322;18.892;2022-09-24T09:12:36;57777.09;;;-145.38;64.51
61939;BME280;47897;50.322;18.892;2022-09-24T09:15:15;57785.59;;;-145.38;64.49
61939;BME280;47897;50.322;18.892;2022-09-24T09:18:12;57769.86;;;-145.38;64.42
61939;BME280;47897;50.322;18.892;2022-09-24T09:20:44;57764.34;;;-145.38;63.86
61939;BME280;47897;50.322;18.892;2022-09-24T09:23:18;57763.49;;;-145.38;63.67
61939;BME280;47897;50.322;18.892;2022-09-24T09:25:55;57759.24;;;-145.38;63.47
61939;BME280;47897;50.322;18.892;2022-09-24T09:28:26;57754.99;;;-145.38;62.82
61939;BME280;47897;50.322;18.892;2022-09-24T09:42:45;57771.99;;;-145.38;62.50
61939;BME280;47897;50.322;18.892;2022-09-24T09:48:09;57762.64;;;-145.38;61.14
61939;BME280;47897;50.322;18.892;2022-09-24T09:50:48;57762.21;;;-145.38;61.09
61939;BME280;47897;50.322;18.892;2022-09-24T09:53:23;57746.49;;;-145.38;60.63
61939;BME280;47897;50.322;18.892;2022-09-24T09:56:03;57753.72;;;-145.38;60.16
61939;BME280;47897;50.322;18.892;2022-09-24T09:58:44;57757.96;;;-145.38;59.42
61939;BME280;47897;50.322;18.892;2022-09-24T10:01:30;57760.51;;;-145.38;58.96
61939;BME280;47897;50.322;18.892;2022-09-24T10:04:02;57749.89;;;-145.38;58.19
61939;BME280;47897;50.322;18.892;2022-09-24T10:06:34;57757.97;;;-145.38;57.81
61939;BME280;47897;50.322;18.892;2022-09-24T10:09:14;57760.95;;;-145.38;57.94
61939;BME280;47897;50.322;18.892;2022-09-24T10:11:45;57760.52;;;-145.38;57.35
61939;BME280;47897;50.322;18.892;2022-09-24T10:14:16;57748.20;;;-145.38;56.38
61939;BME280;47897;50.322;18.892;2022-09-24T10:16:52;57748.20;;;-145.38;57.09
61939;BME280;47897;50.322;18.892;2022-09-24T10:19:25;57742.24;;;-145.38;57.67
61939;BME280;47897;50.322;18.892;2022-09-24T10:21:56;57746.92;;;-145.38;57.65
61939;BME280;47897;50.322;18.892;2022-09-24T10:24:27;57738.42;;;-145.38;57.82
61939;BME280;47897;50.322;18.892;2022-09-24T10:26:58;57755.42;;;-145.38;57.76
61939;BME280;47897;50.322;18.892;2022-09-24T10:29:32;57751.17;;;-145.38;57.39
61939;BME280;47897;50.322;18.892;2022-09-24T10:32:22;57758.39;;;-145.38;56.41
61939;BME280;47897;50.322;18.892;2022-09-24T10:37:26;57750.32;;;-145.38;56.59
61939;BME280;47897;50.322;18.892;2022-09-24T10:40:13;57755.42;;;-145.38;55.94
61939;BME280;47897;50.322;18.892;2022-09-24T10:42:54;57751.59;;;-145.38;56.06
61939;BME280;47897;50.322;18.892;2022-09-24T10:48:16;57744.79;;;-145.38;56.14
61939;BME280;47897;50.322;18.892;2022-09-24T10:51:01;57755.84;;;-145.38;55.84
61939;BME280;47897;50.322;18.892;2022-09-24T10:56:38;57760.95;;;-145.38;54.91
61939;BME280;47897;50.322;18.892;2022-09-24T10:59:26;57742.24;;;-145.38;55.09
61939;BME280;47897;50.322;18.892;2022-09-24T11:13:09;57746.92;;;-145.38;54.13
61939;BME280;47897;50.322;18.892;2022-09-24T11:22:17;57741.82;;;-145.38;53.52
61939;BME280;47897;50.322;18.892;2022-09-24T11:31:05;57754.14;;;-145.38;53.87
61939;BME280;47897;50.322;18.892;2022-09-24T11:39:42;57739.70;;;-145.38;51.90
61939;BME280;47897;50.322;18.892;2022-09-24T11:48:21;57733.74;;;-145.38;50.25
61939;BME280;47897;50.322;18.892;2022-09-24T11:56:16;57735.87;;;-145.38;48.14
61939;BME280;47897;50.322;18.892;2022-09-24T11:58:53;57746.92;;;-145.38;48.91
61939;BME280;47897;50.322;18.892;2022-09-24T12:01:32;57749.04;;;-145.38;48.28
61939;BME280;47897;50.322;18.892;2022-09-24T12:09:18;57745.22;;;-145.38;48.27
61939;BME280;47897;50.322;18.892;2022-09-24T12:17:17;57738.42;;;-145.38;48.27
61939;BME280;47897;50.322;18.892;2022-09-24T12:19:58;57742.24;;;-145.38;48.88
61939;BME280;47897;50.322;18.892;2022-09-24T12:22:30;57725.24;;;-145.38;48.73
61939;BME280;47897;50.322;18.892;2022-09-24T12:25:01;57744.37;;;-145.38;48.75
61939;BME280;47897;50.322;18.892;2022-09-24T12:27:36;57735.87;;;-145.38;48.64
61939;BME280;47897;50.322;18.892;2022-09-24T12:30:32;57737.57;;;-145.38;48.49
61939;BME280;47897;50.322;18.892;2022-09-24T12:36:08;57735.02;;;-145.38;48.39
61939;BME280;47897;50.322;18.892;2022-09-24T12:38:46;57752.44;;;-145.38;48.82
61939;BME280;47897;50.322;18.892;2022-09-24T12:41:37;57743.52;;;-145.38;49.09
61939;BME280;47897;50.322;18.892;2022-09-24T12:46:49;57726.95;;;-145.38;49.68
61939;BME280;47897;50.322;18.892;2022-09-24T12:49:32;57745.64;;;-145.38;49.58
61939;BME280;47897;50.322;18.892;2022-09-24T12:52:16;57747.34;;;-145.38;49.12
61939;BME280;47897;50.322;18.892;2022-09-24T12:54:56;57739.70;;;-145.38;48.46
61939;BME280;47897;50.322;18.892;2022-09-24T12:57:35;57747.77;;;-145.38;48.73
61939;BME280;47897;50.322;18.892;2022-09-24T13:00:34;57736.29;;;-145.38;48.80
61939;BME280;47897;50.322;18.892;2022-09-24T13:03:06;57742.67;;;-145.38;48.86
61939;BME280;47897;50.322;18.892;2022-09-24T13:10:56;57750.32;;;-145.38;48.93
61939;BME280;47897;50.322;18.892;2022-09-24T13:13:35;57742.24;;;-145.38;49.27
61939;BME280;47897;50.322;18.892;2022-09-24T13:16:18;57731.62;;;-145.38;49.44
61939;BME280;47897;50.322;18.892;2022-09-24T13:18:55;57734.17;;;-145.38;49.48
61939;BME280;47897;50.322;18.892;2022-09-24T13:21:28;57740.97;;;-145.38;49.30
61939;BME280;47897;50.322;18.892;2022-09-24T13:24:09;57732.89;;;-145.38;48.49
61939;BME280;47897;50.322;18.892;2022-09-24T13:26:40;57739.27;;;-145.38;49.35
61939;BME280;47897;50.322;18.892;2022-09-24T13:29:24;57731.62;;;-145.38;49.38
61939;BME280;47897;50.322;18.892;2022-09-24T13:31:59;57737.57;;;-145.38;49.54
61939;BME280;47897;50.322;18.892;2022-09-24T13:34:31;57730.35;;;-145.38;49.46
61939;BME280;47897;50.322;18.892;2022-09-24T13:37:18;57737.14;;;-145.38;49.35
61939;BME280;47897;50.322;18.892;2022-09-24T13:39:55;57737.57;;;-145.38;49.24
61939;BME280;47897;50.322;18.892;2022-09-24T13:42:33;57748.62;;;-145.38;49.69
61939;BME280;47897;50.322;18.892;2022-09-24T13:45:10;57726.52;;;-145.38;50.01
61939;BME280;47897;50.322;18.892;2022-09-24T13:48:27;57727.37;;;-145.38;49.71
61939;BME280;47897;50.322;18.892;2022-09-24T13:50:51;57741.39;;;-145.38;49.78
61939;BME280;47897;50.322;18.892;2022-09-24T13:56:03;57745.22;;;-145.38;49.67
61939;BME280;47897;50.322;18.892;2022-09-24T13:58:37;57742.67;;;-145.38;49.82
61939;BME280;47897;50.322;18.892;2022-09-24T14:03:51;57746.92;;;-145.38;50.50
61939;BME280;47897;50.322;18.892;2022-09-24T14:06:37;57749.47;;;-145.38;50.20
61939;BME280;47897;50.322;18.892;2022-09-24T14:11:58;57735.02;;;-145.38;50.23
61939;BME280;47897;50.322;18.892;2022-09-24T14:14:33;57743.95;;;-145.38;50.93
61939;BME280;47897;50.322;18.892;2022-09-24T14:17:08;57741.39;;;-145.38;50.74
61939;BME280;47897;50.322;18.892;2022-09-24T14:19:41;57746.07;;;-145.38;51.08
61939;BME280;47897;50.322;18.892;2022-09-24T14:22:17;57740.54;;;-145.38;50.62
61939;BME280;47897;50.322;18.892;2022-09-24T14:25:09;57739.27;;;-145.38;50.25
61939;BME280;47897;50.322;18.892;2022-09-24T14:27:44;57737.57;;;-145.38;50.05
61939;BME280;47897;50.322;18.892;2022-09-24T14:30:28;57746.92;;;-145.38;50.26
61939;BME280;47897;50.322;18.892;2022-09-24T14:33:02;57751.59;;;-145.38;50.57
61939;BME280;47897;50.322;18.892;2022-09-24T14:35:36;57732.47;;;-145.38;50.82
61939;BME280;47897;50.322;18.892;2022-09-24T14:38:13;57747.34;;;-145.38;50.59
61939;BME280;47897;50.322;18.892;2022-09-24T14:44:17;57734.59;;;-145.38;50.54
61939;BME280;47897;50.322;18.892;2022-09-24T14:46:51;57749.47;;;-145.38;50.19
61939;BME280;47897;50.322;18.892;2022-09-24T14:49:26;57740.12;;;-145.38;50.77
61939;BME280;47897;50.322;18.892;2022-09-24T14:52:01;57734.17;;;-145.38;50.89
61939;BME280;47897;50.322;18.892;2022-09-24T14:54:39;57735.45;;;-145.38;50.84
61939;BME280;47897;50.322;18.892;2022-09-24T14:59:46;57745.22;;;-145.38;50.75
61939;BME280;47897;50.322;18.892;2022-09-24T15:05:01;57742.67;;;-145.38;51.52
61939;BME280;47897;50.322;18.892;2022-09-24T15:07:32;57743.95;;;-145.38;51.86
61939;BME280;47897;50.322;18.892;2022-09-24T15:10:04;57735.02;;;-145.38;52.16
61939;BME280;47897;50.322;18.892;2022-09-24T15:12:34;57738.84;;;-145.38;52.82
61939;BME280;47897;50.322;18.892;2022-09-24T15:17:48;57752.45;;;-145.38;54.59
61939;BME280;47897;50.322;18.892;2022-09-24T15:20:18;57737.57;;;-145.38;54.53
61939;BME280;47897;50.322;18.892;2022-09-24T15:22:48;57734.59;;;-145.38;54.50
61939;BME280;47897;50.322;18.892;2022-09-24T15:25:18;57737.57;;;-145.38;55.43
61939;BME280;47897;50.322;18.892;2022-09-24T15:27:47;57740.54;;;-145.38;56.22
61939;BME280;47897;50.322;18.892;2022-09-24T15:30:20;57744.79;;;-145.38;57.16